Time;durP1;ratioP1;P1;durP2;ratioP2;P2;SDS_P1;SDS_P2;PMS_P1;PMS_P2;Temp;Humidity;BMP_temperature;BMP_pressure;BME280_temperature;BME280_humidity;BME280_pressure;Samples;Min_cycle;Max_cycle;Signal;HPM_P1;HPM_P2
2022/11/15 00:01:14;;;;;;;;;17.67;17.67;;;;;;;;5079216;28;9514;-85
2022/11/15 00:03:40;;;;;;;;;19.00;17.00;;;;;;;;5079285;28;9613;-81
2022/11/15 00:06:05;;;;;;;;;14.33;14.33;;;;;;;;5079082;28;11941;-82
2022/11/15 00:08:31;;;;;;;;;25.00;19.33;;;;;;;;5094173;28;12808;-82
2022/11/15 00:10:58;;;;;;;;;20.33;16.00;;;;;;;;5099180;28;13635;-82
2022/11/15 00:13:23;;;;;;;;;15.00;15.00;;;;;;;;5080625;28;13565;-82
2022/11/15 00:15:49;;;;;;;;;15.00;14.67;;;;;;;;5098968;28;12674;-82
2022/11/15 00:18:14;;;;;;;;;20.33;14.33;;;;;;;;5099148;28;8908;-82
2022/11/15 00:20:40;;;;;;;;;17.33;17.33;;;;;;;;5099126;28;13531;-82
2022/11/15 00:23:05;;;;;;;;;19.33;17.67;;;;;;;;5099436;28;10850;-82
2022/11/15 00:25:31;;;;;;;;;20.67;17.00;;;;;;;;5080618;28;11838;-84
2022/11/15 00:27:57;;;;;;;;;20.00;18.67;;;;;;;;5098738;28;13453;-81
2022/11/15 00:30:22;;;;;;;;;19.00;16.33;;;;;;;;5082176;28;12503;-84
2022/11/15 00:32:48;;;;;;;;;27.00;17.00;;;;;;;;5102369;28;13219;-84
2022/11/15 00:35:13;;;;;;;;;18.00;17.00;;;;;;;;5102238;28;13661;-84
2022/11/15 00:37:38;;;;;;;;;18.33;15.67;;;;;;;;5102647;28;9473;-83
2022/11/15 00:40:04;;;;;;;;;13.33;11.00;;;;;;;;5102434;28;10740;-84
2022/11/15 00:42:29;;;;;;;;;19.00;17.67;;;;;;;;5083762;28;13533;-83
2022/11/15 00:44:54;;;;;;;;;17.33;14.00;;;;;;;;5102485;28;11705;-83
2022/11/15 00:47:19;;;;;;;;;14.67;11.33;;;;;;;;5102508;28;12154;-83
2022/11/15 00:49:45;;;;;;;;;20.00;17.00;;;;;;;;5102521;28;11683;-83
2022/11/15 00:52:10;;;;;;;;;15.67;14.33;;;;;;;;5102428;28;13516;-84
2022/11/15 00:54:35;;;;;;;;;17.67;15.67;;;;;;;;5102238;28;13440;-83
2022/11/15 00:57:00;;;;;;;;;21.00;15.00;;;;;;;;5102253;28;11718;-84
2022/11/15 00:59:26;;;;;;;;;14.33;11.00;;;;;;;;5102090;28;13641;-82
2022/11/15 01:01:51;;;;;;;;;20.00;15.00;;;;;;;;5102070;28;12181;-82
2022/11/15 01:04:17;;;;;;;;;21.33;16.33;;;;;;;;5083499;28;14983;-82
2022/11/15 01:06:42;;;;;;;;;17.00;17.00;;;;;;;;5102578;28;11595;-81
2022/11/15 01:09:07;;;;;;;;;21.00;18.00;;;;;;;;5099988;28;16064;-83
2022/11/15 01:11:33;;;;;;;;;23.67;17.33;;;;;;;;5102142;28;10324;-83
2022/11/15 01:13:58;;;;;;;;;17.67;16.00;;;;;;;;5101807;28;12709;-82
2022/11/15 01:16:24;;;;;;;;;19.33;16.00;;;;;;;;5101783;28;13844;-81
2022/11/15 01:18:50;;;;;;;;;16.67;15.33;;;;;;;;5102031;28;8981;-82
2022/11/15 01:21:17;;;;;;;;;26.00;18.00;;;;;;;;5101997;28;11446;-82
2022/11/15 01:23:42;;;;;;;;;21.00;17.00;;;;;;;;5101561;28;14619;-82
2022/11/15 01:26:10;;;;;;;;;25.67;19.33;;;;;;;;5101668;28;8874;-82
2022/11/15 01:28:36;;;;;;;;;25.00;18.33;;;;;;;;5101742;28;12130;-82
2022/11/15 01:31:02;;;;;;;;;10.67;9.00;;;;;;;;5100184;28;10272;-85
2022/11/15 01:33:28;;;;;;;;;16.67;16.67;;;;;;;;5101188;28;22565;-85
2022/11/15 01:35:54;;;;;;;;;20.67;16.00;;;;;;;;5101131;28;22748;-86
2022/11/15 01:38:19;;;;;;;;;23.33;18.33;;;;;;;;5100120;28;15860;-83
2022/11/15 01:40:45;;;;;;;;;20.00;17.67;;;;;;;;5099901;28;13479;-84
2022/11/15 01:43:20;;;;;;;;;13.00;11.67;;;;;;;;5101494;28;11583;-84
2022/11/15 01:45:49;;;;;;;;;17.67;17.00;;;;;;;;5101535;28;10661;-85
2022/11/15 01:48:14;;;;;;;;;20.33;16.33;;;;;;;;5100012;28;13584;-84
2022/11/15 01:50:39;;;;;;;;;16.00;16.00;;;;;;;;5101482;28;13553;-85
2022/11/15 01:53:05;;;;;;;;;21.67;17.33;;;;;;;;5101285;28;13444;-84
2022/11/15 01:55:30;;;;;;;;;17.00;14.67;;;;;;;;5101280;28;13274;-82
2022/11/15 01:57:57;;;;;;;;;19.67;19.00;;;;;;;;5101276;28;13269;-82
2022/11/15 02:00:23;;;;;;;;;19.00;15.00;;;;;;;;5099790;28;14853;-83
2022/11/15 02:02:48;;;;;;;;;21.00;16.33;;;;;;;;5099439;28;11821;-84
2022/11/15 02:05:13;;;;;;;;;13.00;13.00;;;;;;;;5101018;28;13456;-85
2022/11/15 02:07:39;;;;;;;;;16.67;15.33;;;;;;;;5100888;28;13266;-83
2022/11/15 02:10:09;;;;;;;;;23.00;19.00;;;;;;;;5101171;28;11610;-84
2022/11/15 02:12:35;;;;;;;;;17.67;15.00;;;;;;;;5101358;28;13835;-85
2022/11/15 02:15:01;;;;;;;;;17.67;15.67;;;;;;;;5100978;28;12416;-85
2022/11/15 02:17:37;;;;;;;;;19.00;19.00;;;;;;;;5082651;28;9122;-85
2022/11/15 02:20:18;;;;;;;;;20.00;18.33;;;;;;;;5101216;28;11747;-85
2022/11/15 02:22:43;;;;;;;;;17.00;14.33;;;;;;;;5100670;28;13376;-83
2022/11/15 02:25:14;;;;;;;;;20.67;14.33;;;;;;;;5100571;28;11814;-83
2022/11/15 02:27:58;;;;;;;;;16.00;12.67;;;;;;;;5101536;28;10462;-82
2022/11/15 02:30:24;;;;;;;;;23.33;18.00;;;;;;;;5102716;28;13509;-83
2022/11/15 02:33:09;;;;;;;;;17.33;16.67;;;;;;;;5102242;28;13558;-83
2022/11/15 02:35:42;;;;;;;;;24.00;17.00;;;;;;;;5101029;28;13834;-84
2022/11/15 02:38:08;;;;;;;;;15.33;15.33;;;;;;;;5082381;28;15752;-83
2022/11/15 02:40:42;;;;;;;;;18.00;15.00;;;;;;;;5100726;28;14424;-83
2022/11/15 02:45:56;;;;;;;;;17.67;14.33;;;;;;;;5100482;28;11437;-83
2022/11/15 02:48:23;;;;;;;;;21.00;19.00;;;;;;;;5100504;28;12505;-85
2022/11/15 02:50:48;;;;;;;;;23.33;18.33;;;;;;;;5081889;28;15738;-85
2022/11/15 02:53:14;;;;;;;;;16.33;15.33;;;;;;;;5081144;28;13237;-84
2022/11/15 02:55:58;;;;;;;;;18.33;15.67;;;;;;;;5081902;28;10686;-83
2022/11/15 02:58:35;;;;;;;;;15.33;13.33;;;;;;;;5100282;28;11683;-84
2022/11/15 03:01:06;;;;;;;;;19.33;17.33;;;;;;;;5082506;28;13937;-88
2022/11/15 03:03:41;;;;;;;;;17.00;13.67;;;;;;;;5081969;28;11812;-77
2022/11/15 03:06:14;;;;;;;;;17.00;15.33;;;;;;;;5100186;28;11706;-73
2022/11/15 03:08:50;;;;;;;;;16.33;12.33;;;;;;;;5100608;22;9371;-68
2022/11/15 03:11:17;;;;;;;;;18.33;15.67;;;;;;;;5078587;28;10636;-69
2022/11/15 03:14:02;;;;;;;;;12.33;10.67;;;;;;;;5059943;28;13550;-69
2022/11/15 03:16:34;;;;;;;;;17.33;13.00;;;;;;;;5077965;28;8777;-71
2022/11/15 03:19:06;;;;;;;;;15.33;12.67;;;;;;;;5078316;28;11675;-69
2022/11/15 03:21:33;;;;;;;;;22.67;17.33;;;;;;;;5078456;28;11441;-69
2022/11/15 03:24:02;;;;;;;;;17.67;15.33;;;;;;;;5077988;28;13504;-70
2022/11/15 03:26:28;;;;;;;;;15.67;12.00;;;;;;;;5078180;28;10743;-70
2022/11/15 03:29:00;;;;;;;;;16.67;14.00;;;;;;;;5078020;28;11893;-71
2022/11/15 03:31:46;;;;;;;;;21.00;15.67;;;;;;;;5077988;28;9065;-70
2022/11/15 03:34:16;;;;;;;;;16.67;15.33;;;;;;;;5059455;28;15485;-70
2022/11/15 03:36:43;;;;;;;;;18.33;15.67;;;;;;;;5078213;28;13289;-70
2022/11/15 03:39:08;;;;;;;;;16.00;14.33;;;;;;;;5077885;28;11437;-71
2022/11/15 03:41:45;;;;;;;;;21.00;17.00;;;;;;;;5077843;28;11646;-70
2022/11/15 03:44:19;;;;;;;;;19.00;12.67;;;;;;;;5077922;28;13822;-70
2022/11/15 03:47:07;;;;;;;;;17.33;16.33;;;;;;;;5078226;28;13320;-70
2022/11/15 03:49:34;;;;;;;;;20.67;13.33;;;;;;;;5078008;28;11473;-70
2022/11/15 03:52:00;;;;;;;;;15.33;15.33;;;;;;;;5077347;28;12814;-69
2022/11/15 03:54:25;;;;;;;;;16.67;13.00;;;;;;;;5077982;28;12326;-70
2022/11/15 03:56:51;;;;;;;;;10.33;8.00;;;;;;;;5078232;28;11376;-70
2022/11/15 03:59:16;;;;;;;;;12.67;9.67;;;;;;;;5077595;28;22542;-69
2022/11/15 04:01:41;;;;;;;;;25.33;15.00;;;;;;;;5078062;28;10313;-70
2022/11/15 04:04:07;;;;;;;;;16.00;14.67;;;;;;;;5058727;28;24792;-70
2022/11/15 04:06:32;;;;;;;;;17.33;15.67;;;;;;;;5081185;28;13576;-70
2022/11/15 04:08:57;;;;;;;;;19.00;17.33;;;;;;;;5096745;28;10328;-70
2022/11/15 04:11:23;;;;;;;;;15.67;14.33;;;;;;;;5082710;28;13219;-68
2022/11/15 04:13:48;;;;;;;;;14.33;10.33;;;;;;;;5101141;28;10717;-69
2022/11/15 04:16:13;;;;;;;;;22.33;16.67;;;;;;;;5101413;28;11681;-69
2022/11/15 04:18:38;;;;;;;;;19.33;16.33;;;;;;;;5100881;28;13752;-70
2022/11/15 04:26:32;;;;;;;;;19.33;14.67;;;;;;;;5099826;28;21569;-69
2022/11/15 04:31:41;;;;;;;;;19.33;14.67;;;;;;;;5101436;28;8813;-70
2022/11/15 04:34:07;;;;;;;;;16.67;14.67;;;;;;;;5101098;28;9340;-69
2022/11/15 04:39:16;;;;;;;;;18.33;16.00;;;;;;;;5101105;28;13283;-69
